createdAt,value
2022-08-14T00:03:29.188Z,21.90
2022-08-14T00:19:05.480Z,21.80
2022-08-14T00:33:59.065Z,21.63
2022-08-14T00:49:21.198Z,21.30
2022-08-14T01:04:38.466Z,21.01
2022-08-14T01:20:08.568Z,20.88
2022-08-14T01:36:03.700Z,20.80
2022-08-14T01:50:55.689Z,20.67
2022-08-14T02:06:32.578Z,20.55
2022-08-14T02:21:24.375Z,20.40
2022-08-14T02:37:03.800Z,20.34
2022-08-14T02:51:55.278Z,20.29
2022-08-14T03:07:07.373Z,20.25
2022-08-14T03:22:17.711Z,20.12
2022-08-14T03:37:51.543Z,19.98
2022-08-14T03:52:47.869Z,19.86
2022-08-14T04:08:08.511Z,19.82
2022-08-14T04:23:29.107Z,19.98
2022-08-14T04:38:55.738Z,20.19
2022-08-14T04:54:01.540Z,20.52
2022-08-14T05:09:05.706Z,21.03
2022-08-14T05:24:17.572Z,21.23
2022-08-14T05:39:23.124Z,21.58
2022-08-14T05:54:27.517Z,22.43
2022-08-14T06:09:35.400Z,23.20
2022-08-14T06:24:44.119Z,23.98
2022-08-14T06:39:48.365Z,24.93
2022-08-14T06:54:52.774Z,25.77
2022-08-14T07:09:55.847Z,26.37
2022-08-14T07:24:59.404Z,27.20
2022-08-14T07:40:06.694Z,27.92
2022-08-14T07:55:15.354Z,28.83
2022-08-14T08:11:02.563Z,29.46
2022-08-14T08:25:56.546Z,30.32
2022-08-14T08:41:01.246Z,30.43
2022-08-14T08:56:04.828Z,31.81
2022-08-14T09:11:19.719Z,33.02
2022-08-14T09:26:28.558Z,32.08
2022-08-14T09:42:21.190Z,32.28
2022-08-14T09:57:27.706Z,33.25
2022-08-14T10:12:45.403Z,33.29
2022-08-14T10:27:57.159Z,34.28
2022-08-14T10:43:00.683Z,34.28
2022-08-14T10:58:04.687Z,34.75
2022-08-14T11:13:09.279Z,35.05
2022-08-14T11:28:19.491Z,34.51
2022-08-14T11:43:29.614Z,33.99
2022-08-14T11:58:37.331Z,34.58
2022-08-14T12:13:44.409Z,34.25
2022-08-14T12:29:16.376Z,34.92
2022-08-14T12:44:30.419Z,34.64
2022-08-14T12:59:37.273Z,35.51
2022-08-14T13:14:50.639Z,35.40
2022-08-14T13:29:59.211Z,34.46
2022-08-14T13:45:04.655Z,35.25
2022-08-14T14:00:14.587Z,34.82
2022-08-14T14:15:22.886Z,32.63
2022-08-14T14:30:51.723Z,31.13
2022-08-14T14:45:57.890Z,32.70
2022-08-14T15:01:03.890Z,29.64
2022-08-14T15:16:12.933Z,27.21
2022-08-14T15:31:16.636Z,26.17
2022-08-14T15:46:25.376Z,26.04
2022-08-14T16:01:54.087Z,26.02
2022-08-14T16:17:00.353Z,25.88
2022-08-14T16:47:34.763Z,25.45
2022-08-14T17:02:43.059Z,25.21
2022-08-14T17:17:57.790Z,25.14
2022-08-14T17:33:13.787Z,25.03
2022-08-14T17:49:14.970Z,24.97
2022-08-14T18:03:58.943Z,24.50
2022-08-14T18:19:12.178Z,24.67
2022-08-14T18:34:32.087Z,24.34
2022-08-14T18:50:01.512Z,24.30
2022-08-14T19:05:09.434Z,24.11
2022-08-14T19:20:19.010Z,24.11
2022-08-14T19:35:48.467Z,23.91
2022-08-14T19:51:02.222Z,23.73
2022-08-14T20:06:10.892Z,23.63
2022-08-14T20:21:17.233Z,23.49
2022-08-14T20:36:29.284Z,23.32
2022-08-14T20:52:04.810Z,23.26
2022-08-14T21:07:33.451Z,23.12
2022-08-14T21:22:38.177Z,23.03
2022-08-14T21:37:46.002Z,22.92
2022-08-14T21:53:01.024Z,22.66
2022-08-14T22:08:06.869Z,22.47
2022-08-14T22:23:12.788Z,22.41
2022-08-14T22:38:36.550Z,22.36
2022-08-14T22:53:40.204Z,22.19
2022-08-14T23:08:58.527Z,22.13
2022-08-14T23:24:05.962Z,22.02
2022-08-14T23:39:12.197Z,21.98
2022-08-14T23:54:48.741Z,21.88
